sensor_id;sensor_type;location;lat;lon;timestamp;temperature;humidity
41220;DHT22;26951;47.338;9.196;2023-12-28T00:01:42;1.20;40.40
41220;DHT22;26951;47.338;9.196;2023-12-28T00:04:27;1.20;40.60
41220;DHT22;26951;47.338;9.196;2023-12-28T00:07:12;1.30;41.90
41220;DHT22;26951;47.338;9.196;2023-12-28T00:09:57;1.30;42.40
41220;DHT22;26951;47.338;9.196;2023-12-28T00:12:41;1.30;43.00
41220;DHT22;26951;47.338;9.196;2023-12-28T00:15:25;1.20;42.60
41220;DHT22;26951;47.338;9.196;2023-12-28T00:18:09;1.20;41.10
41220;DHT22;26951;47.338;9.196;2023-12-28T00:20:53;1.20;41.10
41220;DHT22;26951;47.338;9.196;2023-12-28T00:23:37;1.30;41.10
41220;DHT22;26951;47.338;9.196;2023-12-28T00:26:21;1.30;40.10
41220;DHT22;26951;47.338;9.196;2023-12-28T00:29:05;1.40;40.80
41220;DHT22;26951;47.338;9.196;2023-12-28T00:31:49;1.30;40.70
41220;DHT22;26951;47.338;9.196;2023-12-28T00:34:34;1.30;40.70
41220;DHT22;26951;47.338;9.196;2023-12-28T00:37:18;1.30;40.90
41220;DHT22;26951;47.338;9.196;2023-12-28T00:40:02;1.30;41.30
41220;DHT22;26951;47.338;9.196;2023-12-28T00:42:47;1.30;41.60
41220;DHT22;26951;47.338;9.196;2023-12-28T00:45:31;1.30;41.40
41220;DHT22;26951;47.338;9.196;2023-12-28T00:48:15;1.30;42.40
41220;DHT22;26951;47.338;9.196;2023-12-28T00:50:59;1.20;41.80
41220;DHT22;26951;47.338;9.196;2023-12-28T00:53:43;1.20;40.20
41220;DHT22;26951;47.338;9.196;2023-12-28T00:56:28;1.30;39.30
41220;DHT22;26951;47.338;9.196;2023-12-28T00:59:12;1.40;39.20
41220;DHT22;26951;47.338;9.196;2023-12-28T01:01:56;1.50;38.40
41220;DHT22;26951;47.338;9.196;2023-12-28T01:04:40;1.60;39.50
41220;DHT22;26951;47.338;9.196;2023-12-28T01:07:24;1.60;40.90
41220;DHT22;26951;47.338;9.196;2023-12-28T01:10:08;1.50;40.90
41220;DHT22;26951;47.338;9.196;2023-12-28T01:12:52;1.50;41.20
41220;DHT22;26951;47.338;9.196;2023-12-28T01:15:36;1.40;40.50
41220;DHT22;26951;47.338;9.196;2023-12-28T01:18:21;1.40;39.90
41220;DHT22;26951;47.338;9.196;2023-12-28T01:21:05;1.40;39.40
41220;DHT22;26951;47.338;9.196;2023-12-28T01:23:50;1.50;40.40
41220;DHT22;26951;47.338;9.196;2023-12-28T01:26:34;1.50;39.10
41220;DHT22;26951;47.338;9.196;2023-12-28T01:29:18;1.50;38.90
41220;DHT22;26951;47.338;9.196;2023-12-28T01:32:03;1.60;38.60
41220;DHT22;26951;47.338;9.196;2023-12-28T01:34:47;1.60;40.70
41220;DHT22;26951;47.338;9.196;2023-12-28T01:37:32;1.50;40.00
41220;DHT22;26951;47.338;9.196;2023-12-28T01:40:17;1.50;38.50
41220;DHT22;26951;47.338;9.196;2023-12-28T01:43:01;1.70;38.10
41220;DHT22;26951;47.338;9.196;2023-12-28T01:45:45;1.80;38.00
41220;DHT22;26951;47.338;9.196;2023-12-28T01:48:30;1.80;38.90
41220;DHT22;26951;47.338;9.196;2023-12-28T01:51:14;1.80;39.30
41220;DHT22;26951;47.338;9.196;2023-12-28T01:53:59;1.70;40.20
41220;DHT22;26951;47.338;9.196;2023-12-28T01:56:44;1.70;40.10
41220;DHT22;26951;47.338;9.196;2023-12-28T01:59:29;1.70;40.50
41220;DHT22;26951;47.338;9.196;2023-12-28T02:02:33;1.60;40.40
41220;DHT22;26951;47.338;9.196;2023-12-28T02:05:18;1.50;40.90
41220;DHT22;26951;47.338;9.196;2023-12-28T02:08:03;1.40;40.80
41220;DHT22;26951;47.338;9.196;2023-12-28T02:10:48;1.50;40.00
41220;DHT22;26951;47.338;9.196;2023-12-28T02:13:32;1.50;39.70
41220;DHT22;26951;47.338;9.196;2023-12-28T02:16:26;1.50;40.30
41220;DHT22;26951;47.338;9.196;2023-12-28T02:19:32;1.50;40.90
41220;DHT22;26951;47.338;9.196;2023-12-28T02:22:17;1.50;40.90
41220;DHT22;26951;47.338;9.196;2023-12-28T02:25:05;1.40;40.90
41220;DHT22;26951;47.338;9.196;2023-12-28T02:27:53;1.30;41.40
41220;DHT22;26951;47.338;9.196;2023-12-28T02:30:37;1.30;40.80
41220;DHT22;26951;47.338;9.196;2023-12-28T02:33:38;1.30;41.50
41220;DHT22;26951;47.338;9.196;2023-12-28T02:36:27;1.20;42.30
41220;DHT22;26951;47.338;9.196;2023-12-28T02:39:14;1.20;41.90
41220;DHT22;26951;47.338;9.196;2023-12-28T02:41:59;1.10;41.50
41220;DHT22;26951;47.338;9.196;2023-12-28T02:44:43;1.20;41.20
41220;DHT22;26951;47.338;9.196;2023-12-28T02:47:27;1.20;41.10
41220;DHT22;26951;47.338;9.196;2023-12-28T02:50:11;1.20;41.90
41220;DHT22;26951;47.338;9.196;2023-12-28T02:52:55;1.20;42.00
41220;DHT22;26951;47.338;9.196;2023-12-28T02:55:39;1.10;42.30
41220;DHT22;26951;47.338;9.196;2023-12-28T02:58:23;1.00;43.00
41220;DHT22;26951;47.338;9.196;2023-12-28T03:01:07;1.00;42.90
41220;DHT22;26951;47.338;9.196;2023-12-28T03:03:52;1.00;42.10
41220;DHT22;26951;47.338;9.196;2023-12-28T03:06:35;1.00;42.10
41220;DHT22;26951;47.338;9.196;2023-12-28T03:09:22;1.00;42.80
41220;DHT22;26951;47.338;9.196;2023-12-28T03:12:06;0.90;43.10
41220;DHT22;26951;47.338;9.196;2023-12-28T03:14:51;0.90;43.10
41220;DHT22;26951;47.338;9.196;2023-12-28T03:17:35;0.80;43.40
41220;DHT22;26951;47.338;9.196;2023-12-28T03:20:20;0.80;43.10
41220;DHT22;26951;47.338;9.196;2023-12-28T03:23:04;0.70;43.90
41220;DHT22;26951;47.338;9.196;2023-12-28T03:25:48;0.80;43.40
41220;DHT22;26951;47.338;9.196;2023-12-28T03:28:32;0.70;43.00
41220;DHT22;26951;47.338;9.196;2023-12-28T03:31:16;0.70;43.40
41220;DHT22;26951;47.338;9.196;2023-12-28T03:34:01;0.70;43.50
41220;DHT22;26951;47.338;9.196;2023-12-28T03:36:45;0.70;43.20
41220;DHT22;26951;47.338;9.196;2023-12-28T03:39:29;0.70;43.40
41220;DHT22;26951;47.338;9.196;2023-12-28T03:42:14;0.70;43.60
41220;DHT22;26951;47.338;9.196;2023-12-28T03:44:58;0.70;44.20
41220;DHT22;26951;47.338;9.196;2023-12-28T03:47:42;0.70;44.60
41220;DHT22;26951;47.338;9.196;2023-12-28T03:50:26;0.70;44.70
41220;DHT22;26951;47.338;9.196;2023-12-28T03:53:11;0.70;44.90
41220;DHT22;26951;47.338;9.196;2023-12-28T03:55:55;0.70;44.70
41220;DHT22;26951;47.338;9.196;2023-12-28T03:58:39;0.70;44.20
41220;DHT22;26951;47.338;9.196;2023-12-28T04:01:23;0.80;44.30
41220;DHT22;26951;47.338;9.196;2023-12-28T04:04:07;0.80;44.50
41220;DHT22;26951;47.338;9.196;2023-12-28T04:06:52;0.80;44.10
41220;DHT22;26951;47.338;9.196;2023-12-28T04:09:36;0.80;44.20
41220;DHT22;26951;47.338;9.196;2023-12-28T04:12:20;0.80;44.30
41220;DHT22;26951;47.338;9.196;2023-12-28T04:15:04;0.90;44.40
41220;DHT22;26951;47.338;9.196;2023-12-28T04:17:49;0.90;44.50
41220;DHT22;26951;47.338;9.196;2023-12-28T04:20:33;0.80;43.90
41220;DHT22;26951;47.338;9.196;2023-12-28T04:23:17;0.90;43.60
41220;DHT22;26951;47.338;9.196;2023-12-28T04:26:01;1.00;44.00
41220;DHT22;26951;47.338;9.196;2023-12-28T04:28:45;1.00;44.20
41220;DHT22;26951;47.338;9.196;2023-12-28T04:31:29;1.10;44.70
41220;DHT22;26951;47.338;9.196;2023-12-28T04:34:13;1.10;44.70
41220;DHT22;26951;47.338;9.196;2023-12-28T04:36:57;1.10;44.40
41220;DHT22;26951;47.338;9.196;2023-12-28T04:39:41;1.10;44.40
41220;DHT22;26951;47.338;9.196;2023-12-28T04:42:25;1.10;43.70
41220;DHT22;26951;47.338;9.196;2023-12-28T04:45:10;1.20;43.50
41220;DHT22;26951;47.338;9.196;2023-12-28T04:47:54;1.10;43.70
41220;DHT22;26951;47.338;9.196;2023-12-28T04:50:38;1.20;44.40
41220;DHT22;26951;47.338;9.196;2023-12-28T04:53:22;1.20;44.20
41220;DHT22;26951;47.338;9.196;2023-12-28T04:56:06;1.20;44.30
41220;DHT22;26951;47.338;9.196;2023-12-28T04:58:50;1.20;44.40
41220;DHT22;26951;47.338;9.196;2023-12-28T05:01:40;1.20;44.50
41220;DHT22;26951;47.338;9.196;2023-12-28T05:04:24;1.20;44.20
41220;DHT22;26951;47.338;9.196;2023-12-28T05:07:08;1.20;43.90
41220;DHT22;26951;47.338;9.196;2023-12-28T05:09:52;1.20;43.40
41220;DHT22;26951;47.338;9.196;2023-12-28T05:12:37;1.30;43.70
41220;DHT22;26951;47.338;9.196;2023-12-28T05:15:21;1.30;43.10
41220;DHT22;26951;47.338;9.196;2023-12-28T05:18:05;1.40;43.50
41220;DHT22;26951;47.338;9.196;2023-12-28T05:20:51;1.40;42.70
41220;DHT22;26951;47.338;9.196;2023-12-28T05:23:35;1.50;43.00
41220;DHT22;26951;47.338;9.196;2023-12-28T05:26:19;1.50;42.50
41220;DHT22;26951;47.338;9.196;2023-12-28T05:29:03;1.50;43.00
41220;DHT22;26951;47.338;9.196;2023-12-28T05:31:47;1.50;43.20
41220;DHT22;26951;47.338;9.196;2023-12-28T05:34:32;1.40;43.70
41220;DHT22;26951;47.338;9.196;2023-12-28T05:37:16;1.40;44.50
41220;DHT22;26951;47.338;9.196;2023-12-28T05:40:00;1.40;44.50
41220;DHT22;26951;47.338;9.196;2023-12-28T05:42:44;1.40;44.70
41220;DHT22;26951;47.338;9.196;2023-12-28T05:45:28;1.40;44.30
41220;DHT22;26951;47.338;9.196;2023-12-28T05:48:12;1.40;44.50
41220;DHT22;26951;47.338;9.196;2023-12-28T05:51:00;1.40;43.80
41220;DHT22;26951;47.338;9.196;2023-12-28T05:53:44;1.40;44.50
41220;DHT22;26951;47.338;9.196;2023-12-28T05:56:28;1.30;44.20
41220;DHT22;26951;47.338;9.196;2023-12-28T05:59:12;1.40;43.90
41220;DHT22;26951;47.338;9.196;2023-12-28T06:01:57;1.40;43.40
41220;DHT22;26951;47.338;9.196;2023-12-28T06:04:41;1.50;44.10
41220;DHT22;26951;47.338;9.196;2023-12-28T06:07:25;1.50;44.30
41220;DHT22;26951;47.338;9.196;2023-12-28T06:10:10;1.50;43.90
41220;DHT22;26951;47.338;9.196;2023-12-28T06:12:54;1.50;43.70
41220;DHT22;26951;47.338;9.196;2023-12-28T06:15:38;1.60;43.70
41220;DHT22;26951;47.338;9.196;2023-12-28T06:18:22;1.60;44.10
41220;DHT22;26951;47.338;9.196;2023-12-28T06:21:08;1.50;44.40
41220;DHT22;26951;47.338;9.196;2023-12-28T06:23:52;1.50;44.30
41220;DHT22;26951;47.338;9.196;2023-12-28T06:26:42;1.50;44.20
41220;DHT22;26951;47.338;9.196;2023-12-28T06:29:26;1.50;44.60
41220;DHT22;26951;47.338;9.196;2023-12-28T06:32:10;1.50;45.30
41220;DHT22;26951;47.338;9.196;2023-12-28T06:34:54;1.40;45.00
41220;DHT22;26951;47.338;9.196;2023-12-28T06:37:39;1.50;44.50
41220;DHT22;26951;47.338;9.196;2023-12-28T06:40:23;1.50;44.50
41220;DHT22;26951;47.338;9.196;2023-12-28T06:43:07;1.50;44.90
41220;DHT22;26951;47.338;9.196;2023-12-28T06:45:51;1.50;44.40
41220;DHT22;26951;47.338;9.196;2023-12-28T06:48:36;1.60;45.10
41220;DHT22;26951;47.338;9.196;2023-12-28T06:51:24;1.60;44.80
41220;DHT22;26951;47.338;9.196;2023-12-28T06:54:09;1.60;44.30
41220;DHT22;26951;47.338;9.196;2023-12-28T06:56:53;1.60;42.30
41220;DHT22;26951;47.338;9.196;2023-12-28T06:59:37;1.70;43.20
41220;DHT22;26951;47.338;9.196;2023-12-28T07:02:21;1.80;42.70
41220;DHT22;26951;47.338;9.196;2023-12-28T07:05:05;1.80;42.10
41220;DHT22;26951;47.338;9.196;2023-12-28T07:07:50;1.90;41.20
41220;DHT22;26951;47.338;9.196;2023-12-28T07:10:34;1.90;40.90
41220;DHT22;26951;47.338;9.196;2023-12-28T07:13:18;2.00;42.30
41220;DHT22;26951;47.338;9.196;2023-12-28T07:16:02;1.90;41.10
41220;DHT22;26951;47.338;9.196;2023-12-28T07:18:47;2.00;41.30
41220;DHT22;26951;47.338;9.196;2023-12-28T07:21:31;2.10;39.00
41220;DHT22;26951;47.338;9.196;2023-12-28T07:24:15;2.20;39.40
41220;DHT22;26951;47.338;9.196;2023-12-28T07:26:59;2.20;41.00
41220;DHT22;26951;47.338;9.196;2023-12-28T07:29:43;2.30;38.60
41220;DHT22;26951;47.338;9.196;2023-12-28T07:32:29;2.40;38.00
41220;DHT22;26951;47.338;9.196;2023-12-28T07:35:13;2.40;39.10
41220;DHT22;26951;47.338;9.196;2023-12-28T07:37:57;2.50;39.60
41220;DHT22;26951;47.338;9.196;2023-12-28T07:40:41;2.50;41.00
41220;DHT22;26951;47.338;9.196;2023-12-28T07:43:26;2.50;41.70
41220;DHT22;26951;47.338;9.196;2023-12-28T07:46:10;2.50;41.70
41220;DHT22;26951;47.338;9.196;2023-12-28T07:48:54;2.40;42.10
41220;DHT22;26951;47.338;9.196;2023-12-28T07:51:38;2.40;41.80
41220;DHT22;26951;47.338;9.196;2023-12-28T07:54:22;2.50;41.90
41220;DHT22;26951;47.338;9.196;2023-12-28T07:57:06;2.50;41.10
41220;DHT22;26951;47.338;9.196;2023-12-28T07:59:50;2.60;41.20
41220;DHT22;26951;47.338;9.196;2023-12-28T08:02:34;2.60;41.10
41220;DHT22;26951;47.338;9.196;2023-12-28T08:05:18;2.70;42.40
41220;DHT22;26951;47.338;9.196;2023-12-28T08:08:02;2.70;43.30
41220;DHT22;26951;47.338;9.196;2023-12-28T08:10:46;2.70;41.30
41220;DHT22;26951;47.338;9.196;2023-12-28T08:13:31;2.80;41.60
41220;DHT22;26951;47.338;9.196;2023-12-28T08:16:15;2.80;42.60
41220;DHT22;26951;47.338;9.196;2023-12-28T08:18:59;2.90;43.50
41220;DHT22;26951;47.338;9.196;2023-12-28T08:21:43;2.90;43.70
41220;DHT22;26951;47.338;9.196;2023-12-28T08:24:27;3.00;44.90
41220;DHT22;26951;47.338;9.196;2023-12-28T08:27:11;3.00;44.60
41220;DHT22;26951;47.338;9.196;2023-12-28T08:29:55;3.10;44.50
41220;DHT22;26951;47.338;9.196;2023-12-28T08:32:39;3.10;44.70
41220;DHT22;26951;47.338;9.196;2023-12-28T08:35:23;3.10;45.60
41220;DHT22;26951;47.338;9.196;2023-12-28T08:38:07;3.20;45.70
41220;DHT22;26951;47.338;9.196;2023-12-28T08:40:52;3.20;45.80
41220;DHT22;26951;47.338;9.196;2023-12-28T08:43:37;3.30;46.30
41220;DHT22;26951;47.338;9.196;2023-12-28T08:46:24;3.40;43.60
41220;DHT22;26951;47.338;9.196;2023-12-28T08:49:11;3.50;44.50
41220;DHT22;26951;47.338;9.196;2023-12-28T08:51:55;3.60;45.60
41220;DHT22;26951;47.338;9.196;2023-12-28T08:54:40;3.60;45.90
41220;DHT22;26951;47.338;9.196;2023-12-28T08:57:25;3.70;47.30
41220;DHT22;26951;47.338;9.196;2023-12-28T09:00:09;3.80;46.00
41220;DHT22;26951;47.338;9.196;2023-12-28T09:02:54;3.90;46.80
41220;DHT22;26951;47.338;9.196;2023-12-28T09:05:38;4.00;46.40
41220;DHT22;26951;47.338;9.196;2023-12-28T09:08:22;4.10;47.00
41220;DHT22;26951;47.338;9.196;2023-12-28T09:11:06;4.20;39.90
41220;DHT22;26951;47.338;9.196;2023-12-28T09:13:50;4.30;42.60
41220;DHT22;26951;47.338;9.196;2023-12-28T09:16:34;4.50;43.30
41220;DHT22;26951;47.338;9.196;2023-12-28T09:19:19;4.60;43.40
41220;DHT22;26951;47.338;9.196;2023-12-28T09:22:03;4.80;44.70
41220;DHT22;26951;47.338;9.196;2023-12-28T09:24:48;4.90;46.00
41220;DHT22;26951;47.338;9.196;2023-12-28T09:27:32;5.00;46.70
41220;DHT22;26951;47.338;9.196;2023-12-28T09:30:17;5.10;47.70
41220;DHT22;26951;47.338;9.196;2023-12-28T09:33:01;5.20;48.10
41220;DHT22;26951;47.338;9.196;2023-12-28T09:35:46;5.30;47.60
41220;DHT22;26951;47.338;9.196;2023-12-28T09:38:30;5.40;46.40
41220;DHT22;26951;47.338;9.196;2023-12-28T09:41:15;5.50;42.10
41220;DHT22;26951;47.338;9.196;2023-12-28T09:46:52;5.80;43.70
41220;DHT22;26951;47.338;9.196;2023-12-28T09:49:40;5.90;44.50
41220;DHT22;26951;47.338;9.196;2023-12-28T09:52:25;6.00;45.60
41220;DHT22;26951;47.338;9.196;2023-12-28T09:55:10;6.00;46.20
41220;DHT22;26951;47.338;9.196;2023-12-28T09:57:55;6.10;46.50
41220;DHT22;26951;47.338;9.196;2023-12-28T10:00:40;6.10;42.00
41220;DHT22;26951;47.338;9.196;2023-12-28T10:03:24;6.20;43.00
41220;DHT22;26951;47.338;9.196;2023-12-28T10:06:09;6.30;44.70
41220;DHT22;26951;47.338;9.196;2023-12-28T10:08:53;6.30;43.70
41220;DHT22;26951;47.338;9.196;2023-12-28T10:11:38;6.40;46.50
41220;DHT22;26951;47.338;9.196;2023-12-28T10:14:23;6.50;46.70
41220;DHT22;26951;47.338;9.196;2023-12-28T10:17:07;6.50;41.50
41220;DHT22;26951;47.338;9.196;2023-12-28T10:19:53;6.50;40.30
41220;DHT22;26951;47.338;9.196;2023-12-28T10:22:38;6.60;42.20
41220;DHT22;26951;47.338;9.196;2023-12-28T10:25:23;6.70;44.20
41220;DHT22;26951;47.338;9.196;2023-12-28T10:28:08;6.80;45.50
41220;DHT22;26951;47.338;9.196;2023-12-28T10:30:55;6.80;45.30
41220;DHT22;26951;47.338;9.196;2023-12-28T10:33:40;6.80;46.10
41220;DHT22;26951;47.338;9.196;2023-12-28T10:36:27;6.90;46.50
41220;DHT22;26951;47.338;9.196;2023-12-28T10:39:14;6.90;46.50
41220;DHT22;26951;47.338;9.196;2023-12-28T10:42:04;7.00;45.70
41220;DHT22;26951;47.338;9.196;2023-12-28T10:44:55;7.00;44.90
41220;DHT22;26951;47.338;9.196;2023-12-28T10:47:50;7.00;45.30
41220;DHT22;26951;47.338;9.196;2023-12-28T10:50:41;7.10;44.50
41220;DHT22;26951;47.338;9.196;2023-12-28T10:56:34;7.20;37.20
41220;DHT22;26951;47.338;9.196;2023-12-28T11:02:16;7.20;35.40
41220;DHT22;26951;47.338;9.196;2023-12-28T11:05:05;7.30;32.50
41220;DHT22;26951;47.338;9.196;2023-12-28T11:07:51;7.30;34.00
41220;DHT22;26951;47.338;9.196;2023-12-28T11:10:38;7.30;34.80
41220;DHT22;26951;47.338;9.196;2023-12-28T11:13:23;7.40;34.10
41220;DHT22;26951;47.338;9.196;2023-12-28T11:16:08;7.40;36.40
41220;DHT22;26951;47.338;9.196;2023-12-28T11:18:53;7.30;35.80
41220;DHT22;26951;47.338;9.196;2023-12-28T11:21:38;7.40;36.90
41220;DHT22;26951;47.338;9.196;2023-12-28T11:24:23;7.40;37.00
41220;DHT22;26951;47.338;9.196;2023-12-28T11:27:07;7.40;35.40
41220;DHT22;26951;47.338;9.196;2023-12-28T11:29:52;7.40;33.50
41220;DHT22;26951;47.338;9.196;2023-12-28T11:32:40;7.50;34.30
41220;DHT22;26951;47.338;9.196;2023-12-28T11:35:35;7.50;33.70
41220;DHT22;26951;47.338;9.196;2023-12-28T11:38:20;7.50;35.00
41220;DHT22;26951;47.338;9.196;2023-12-28T11:41:04;7.50;36.90
41220;DHT22;26951;47.338;9.196;2023-12-28T11:43:55;7.60;36.80
41220;DHT22;26951;47.338;9.196;2023-12-28T11:46:39;7.60;35.20
41220;DHT22;26951;47.338;9.196;2023-12-28T11:49:26;7.60;34.10
41220;DHT22;26951;47.338;9.196;2023-12-28T11:52:30;7.70;28.90
41220;DHT22;26951;47.338;9.196;2023-12-28T11:55:21;7.80;31.70
41220;DHT22;26951;47.338;9.196;2023-12-28T11:58:06;7.80;31.10
41220;DHT22;26951;47.338;9.196;2023-12-28T12:00:50;7.90;32.80
41220;DHT22;26951;47.338;9.196;2023-12-28T12:03:35;7.90;35.30
41220;DHT22;26951;47.338;9.196;2023-12-28T12:06:19;7.90;28.60
41220;DHT22;26951;47.338;9.196;2023-12-28T12:09:03;8.00;27.50
41220;DHT22;26951;47.338;9.196;2023-12-28T12:11:48;8.00;29.40
41220;DHT22;26951;47.338;9.196;2023-12-28T12:14:34;8.10;26.70
41220;DHT22;26951;47.338;9.196;2023-12-28T12:17:18;8.20;24.50
41220;DHT22;26951;47.338;9.196;2023-12-28T12:20:03;8.20;26.20
41220;DHT22;26951;47.338;9.196;2023-12-28T12:22:48;8.20;26.70
41220;DHT22;26951;47.338;9.196;2023-12-28T12:25:33;8.20;27.90
41220;DHT22;26951;47.338;9.196;2023-12-28T12:28:17;8.30;25.40
41220;DHT22;26951;47.338;9.196;2023-12-28T12:31:02;8.30;28.20
41220;DHT22;26951;47.338;9.196;2023-12-28T12:33:48;8.30;28.70
41220;DHT22;26951;47.338;9.196;2023-12-28T12:36:32;8.30;27.70
41220;DHT22;26951;47.338;9.196;2023-12-28T12:39:16;8.30;28.20
41220;DHT22;26951;47.338;9.196;2023-12-28T12:42:00;8.30;29.00
41220;DHT22;26951;47.338;9.196;2023-12-28T12:44:44;8.40;29.40
41220;DHT22;26951;47.338;9.196;2023-12-28T12:47:35;8.40;30.00
41220;DHT22;26951;47.338;9.196;2023-12-28T12:50:19;8.50;29.90
41220;DHT22;26951;47.338;9.196;2023-12-28T12:53:07;8.50;29.70
41220;DHT22;26951;47.338;9.196;2023-12-28T12:55:54;8.50;28.90
41220;DHT22;26951;47.338;9.196;2023-12-28T12:58:39;8.60;27.60
41220;DHT22;26951;47.338;9.196;2023-12-28T13:01:24;8.60;27.00
41220;DHT22;26951;47.338;9.196;2023-12-28T13:04:08;8.50;27.90
41220;DHT22;26951;47.338;9.196;2023-12-28T13:06:52;8.60;29.30
41220;DHT22;26951;47.338;9.196;2023-12-28T13:09:37;8.50;28.90
41220;DHT22;26951;47.338;9.196;2023-12-28T13:12:22;8.50;29.40
41220;DHT22;26951;47.338;9.196;2023-12-28T13:15:06;8.50;30.30
41220;DHT22;26951;47.338;9.196;2023-12-28T13:17:53;8.60;31.10
41220;DHT22;26951;47.338;9.196;2023-12-28T13:20:37;8.50;29.60
41220;DHT22;26951;47.338;9.196;2023-12-28T13:23:21;8.50;31.70
41220;DHT22;26951;47.338;9.196;2023-12-28T13:26:05;8.60;31.60
41220;DHT22;26951;47.338;9.196;2023-12-28T13:28:49;8.60;28.30
41220;DHT22;26951;47.338;9.196;2023-12-28T13:31:33;8.60;28.90
41220;DHT22;26951;47.338;9.196;2023-12-28T13:34:18;8.50;28.10
41220;DHT22;26951;47.338;9.196;2023-12-28T13:37:06;8.50;27.00
41220;DHT22;26951;47.338;9.196;2023-12-28T13:39:51;8.50;28.30
41220;DHT22;26951;47.338;9.196;2023-12-28T13:42:35;8.50;27.10
41220;DHT22;26951;47.338;9.196;2023-12-28T13:45:19;8.50;28.00
41220;DHT22;26951;47.338;9.196;2023-12-28T13:48:03;8.50;26.50
41220;DHT22;26951;47.338;9.196;2023-12-28T13:50:48;8.50;26.70
41220;DHT22;26951;47.338;9.196;2023-12-28T13:53:32;8.50;25.10
41220;DHT22;26951;47.338;9.196;2023-12-28T13:56:19;8.50;26.50
41220;DHT22;26951;47.338;9.196;2023-12-28T13:59:03;8.40;26.50
41220;DHT22;26951;47.338;9.196;2023-12-28T14:01:47;8.50;26.10
41220;DHT22;26951;47.338;9.196;2023-12-28T14:04:32;8.40;26.50
41220;DHT22;26951;47.338;9.196;2023-12-28T14:07:16;8.40;27.00
41220;DHT22;26951;47.338;9.196;2023-12-28T14:10:00;8.40;26.60
41220;DHT22;26951;47.338;9.196;2023-12-28T14:12:44;8.30;26.80
41220;DHT22;26951;47.338;9.196;2023-12-28T14:15:28;8.30;27.00
41220;DHT22;26951;47.338;9.196;2023-12-28T14:18:12;8.20;27.60
41220;DHT22;26951;47.338;9.196;2023-12-28T14:20:56;8.10;27.50
41220;DHT22;26951;47.338;9.196;2023-12-28T14:23:40;8.20;26.30
41220;DHT22;26951;47.338;9.196;2023-12-28T14:26:25;8.10;26.80
41220;DHT22;26951;47.338;9.196;2023-12-28T14:29:10;8.10;27.20
41220;DHT22;26951;47.338;9.196;2023-12-28T14:31:55;8.00;27.50
41220;DHT22;26951;47.338;9.196;2023-12-28T14:34:39;8.00;28.00
41220;DHT22;26951;47.338;9.196;2023-12-28T14:37:24;8.00;28.50
41220;DHT22;26951;47.338;9.196;2023-12-28T14:40:08;8.00;28.00
41220;DHT22;26951;47.338;9.196;2023-12-28T14:42:55;8.00;27.70
41220;DHT22;26951;47.338;9.196;2023-12-28T14:45:40;8.00;28.00
41220;DHT22;26951;47.338;9.196;2023-12-28T14:48:25;8.00;28.20
41220;DHT22;26951;47.338;9.196;2023-12-28T14:51:09;7.90;27.90
41220;DHT22;26951;47.338;9.196;2023-12-28T14:53:53;7.90;27.70
41220;DHT22;26951;47.338;9.196;2023-12-28T14:56:37;7.90;27.90
41220;DHT22;26951;47.338;9.196;2023-12-28T14:59:22;7.80;28.60
41220;DHT22;26951;47.338;9.196;2023-12-28T15:02:06;7.80;29.00
41220;DHT22;26951;47.338;9.196;2023-12-28T15:04:50;7.80;30.00
41220;DHT22;26951;47.338;9.196;2023-12-28T15:07:34;7.70;29.60
41220;DHT22;26951;47.338;9.196;2023-12-28T15:10:18;7.70;29.40
41220;DHT22;26951;47.338;9.196;2023-12-28T15:13:03;7.70;29.30
41220;DHT22;26951;47.338;9.196;2023-12-28T15:15:47;7.70;29.90
41220;DHT22;26951;47.338;9.196;2023-12-28T15:18:33;7.60;31.70
41220;DHT22;26951;47.338;9.196;2023-12-28T15:21:18;7.60;30.50
41220;DHT22;26951;47.338;9.196;2023-12-28T15:24:02;7.60;29.80
41220;DHT22;26951;47.338;9.196;2023-12-28T15:26:46;7.60;31.70
41220;DHT22;26951;47.338;9.196;2023-12-28T15:29:30;7.50;33.70
41220;DHT22;26951;47.338;9.196;2023-12-28T15:32:14;7.50;35.10
41220;DHT22;26951;47.338;9.196;2023-12-28T15:34:58;7.40;35.00
41220;DHT22;26951;47.338;9.196;2023-12-28T15:37:44;7.40;35.20
41220;DHT22;26951;47.338;9.196;2023-12-28T15:40:28;7.30;34.60
41220;DHT22;26951;47.338;9.196;2023-12-28T15:43:12;7.20;34.10
41220;DHT22;26951;47.338;9.196;2023-12-28T15:45:56;7.20;35.70
41220;DHT22;26951;47.338;9.196;2023-12-28T15:48:40;7.10;37.10
41220;DHT22;26951;47.338;9.196;2023-12-28T15:51:24;7.10;37.90
41220;DHT22;26951;47.338;9.196;2023-12-28T15:54:08;7.00;37.90
41220;DHT22;26951;47.338;9.196;2023-12-28T15:56:52;7.00;37.70
41220;DHT22;26951;47.338;9.196;2023-12-28T15:59:36;6.90;37.80
41220;DHT22;26951;47.338;9.196;2023-12-28T16:02:20;6.80;37.40
41220;DHT22;26951;47.338;9.196;2023-12-28T16:05:05;6.70;37.80
41220;DHT22;26951;47.338;9.196;2023-12-28T16:07:49;6.70;37.80
41220;DHT22;26951;47.338;9.196;2023-12-28T16:10:33;6.70;38.20
41220;DHT22;26951;47.338;9.196;2023-12-28T16:13:17;6.60;38.90
41220;DHT22;26951;47.338;9.196;2023-12-28T16:16:02;6.60;39.70
41220;DHT22;26951;47.338;9.196;2023-12-28T16:18:46;6.50;39.80
41220;DHT22;26951;47.338;9.196;2023-12-28T16:21:31;6.50;39.60
41220;DHT22;26951;47.338;9.196;2023-12-28T16:24:15;6.40;37.00
41220;DHT22;26951;47.338;9.196;2023-12-28T16:26:59;6.40;37.30
41220;DHT22;26951;47.338;9.196;2023-12-28T16:29:43;6.40;39.20
41220;DHT22;26951;47.338;9.196;2023-12-28T16:32:27;6.30;38.00
41220;DHT22;26951;47.338;9.196;2023-12-28T16:35:11;6.40;38.90
41220;DHT22;26951;47.338;9.196;2023-12-28T16:37:55;6.40;39.20
41220;DHT22;26951;47.338;9.196;2023-12-28T16:40:40;6.40;40.10
41220;DHT22;26951;47.338;9.196;2023-12-28T16:43:28;6.40;40.00
41220;DHT22;26951;47.338;9.196;2023-12-28T16:46:13;6.40;40.00
41220;DHT22;26951;47.338;9.196;2023-12-28T16:48:57;6.30;39.10
41220;DHT22;26951;47.338;9.196;2023-12-28T16:51:41;6.30;37.50
41220;DHT22;26951;47.338;9.196;2023-12-28T16:54:25;6.20;36.90
41220;DHT22;26951;47.338;9.196;2023-12-28T16:57:10;6.20;37.30
41220;DHT22;26951;47.338;9.196;2023-12-28T16:59:54;6.10;36.30
41220;DHT22;26951;47.338;9.196;2023-12-28T17:02:38;6.10;35.70
41220;DHT22;26951;47.338;9.196;2023-12-28T17:05:23;6.20;37.40
41220;DHT22;26951;47.338;9.196;2023-12-28T17:08:10;6.10;36.20
41220;DHT22;26951;47.338;9.196;2023-12-28T17:10:55;6.10;36.50
41220;DHT22;26951;47.338;9.196;2023-12-28T17:13:39;6.00;37.00
41220;DHT22;26951;47.338;9.196;2023-12-28T17:16:23;6.00;38.00
41220;DHT22;26951;47.338;9.196;2023-12-28T17:19:08;5.90;36.90
41220;DHT22;26951;47.338;9.196;2023-12-28T17:21:52;5.80;35.10
41220;DHT22;26951;47.338;9.196;2023-12-28T17:24:45;5.80;35.40
41220;DHT22;26951;47.338;9.196;2023-12-28T17:27:34;5.80;36.00
41220;DHT22;26951;47.338;9.196;2023-12-28T17:30:26;5.80;37.10
41220;DHT22;26951;47.338;9.196;2023-12-28T17:33:13;5.70;36.00
41220;DHT22;26951;47.338;9.196;2023-12-28T17:36:00;5.70;35.00
41220;DHT22;26951;47.338;9.196;2023-12-28T17:38:44;5.60;34.30
41220;DHT22;26951;47.338;9.196;2023-12-28T17:41:33;5.60;34.90
41220;DHT22;26951;47.338;9.196;2023-12-28T17:44:23;5.50;34.80
41220;DHT22;26951;47.338;9.196;2023-12-28T17:47:14;5.50;36.00